Time;durP1;ratioP1;P1;durP2;ratioP2;P2;SDS_P1;SDS_P2;PMS_P1;PMS_P2;Temp;Humidity;BMP_temperature;BMP_pressure;BME280_temperature;BME280_humidity;BME280_pressure;Samples;Min_cycle;Max_cycle;Signal;HPM_P1;HPM_P2
2021/04/22 00:02:13;;;;;;;63.53;39.75;;;;;;;17.58;41.07;72545.19;4964186;28;20173;-89
2021/04/22 00:04:40;;;;;;;72.35;41.83;;;;;;;17.40;42.11;72527.59;4970208;28;20436;-89
2021/04/22 00:07:07;;;;;;;64.00;39.90;;;;;;;17.97;42.37;72590.09;4941814;29;20028;-88
2021/04/22 00:09:34;;;;;;;68.90;39.35;;;;;;;16.71;44.59;72444.59;4969787;28;20015;-89
2021/04/22 00:12:01;;;;;;;58.05;40.13;;;;;;;17.77;45.98;72570.72;4973503;29;20047;-89
2021/04/22 00:14:28;;;;;;;56.80;41.08;;;;;;;17.71;46.15;72560.75;4949792;29;20084;-88
2021/04/22 00:16:55;;;;;;;65.07;40.30;;;;;;;17.03;43.93;72479.56;4970187;29;20031;-89
2021/04/22 00:19:22;;;;;;;73.65;43.08;;;;;;;16.96;43.32;72473.94;4958694;28;20030;-88
2021/04/22 00:21:48;;;;;;;81.32;45.00;;;;;;;17.61;41.56;72552.16;4958992;28;20028;-90
2021/04/22 00:24:15;;;;;;;71.72;43.03;;;;;;;17.97;41.00;72590.69;4959333;29;20027;-88
2021/04/22 00:26:46;;;;;;;68.15;40.17;;;;;;;16.85;43.97;72463.53;4955398;29;20032;-89
2021/04/22 00:29:15;;;;;;;70.93;40.97;;;;;;;17.78;44.33;72571.31;4947566;29;20165;-90
2021/04/22 00:31:42;;;;;;;66.78;39.90;;;;;;;18.31;44.23;72632.44;4956883;28;20034;-89
2021/04/22 00:34:09;;;;;;;63.85;41.20;;;;;;;18.39;44.74;72635.84;4956891;29;20034;-89
2021/04/22 00:36:36;;;;;;;75.80;39.80;;;;;;;18.45;44.65;72649.19;4965328;29;20031;-89
2021/04/22 00:39:03;;;;;;;69.70;40.33;;;;;;;18.54;43.58;72656.59;4949745;29;20054;-87
2021/04/22 00:41:30;;;;;;;75.85;44.47;;;;;;;18.07;44.54;72599.31;4948155;28;20062;-89
2021/04/22 00:43:57;;;;;;;66.88;42.08;;;;;;;17.70;44.79;72556.19;4946783;29;20030;-88
2021/04/22 00:46:28;;;;;;;66.40;43.20;;;;;;;16.89;45.71;72465.53;4948996;29;20019;-90
2021/04/22 00:48:55;;;;;;;73.07;46.28;;;;;;;16.38;51.06;72409.69;4942668;29;20039;-89
2021/04/22 00:51:22;;;;;;;65.93;45.83;;;;;;;17.03;50.73;72481.72;4944450;29;20031;-89
2021/04/22 00:53:49;;;;;;;67.22;45.15;;;;;;;16.73;50.16;72444.22;4947235;28;20034;-88
2021/04/22 00:56:17;;;;;;;73.13;45.63;;;;;;;16.64;48.42;72439.59;4953067;28;20020;-90
2021/04/22 00:58:44;;;;;;;75.07;47.53;;;;;;;17.17;48.68;72495.13;4968549;28;20051;-88
2021/04/22 01:01:11;;;;;;;65.43;43.60;;;;;;;16.05;48.14;72368.63;4950253;29;20500;-89
2021/04/22 01:03:38;;;;;;;70.50;44.05;;;;;;;16.91;46.31;72465.78;4965947;28;20083;-89
2021/04/22 01:06:08;;;;;;;70.82;45.35;;;;;;;17.23;45.10;72502.28;4950631;29;20062;-90
2021/04/22 01:08:35;;;;;;;83.72;44.53;;;;;;;17.22;43.55;72504.47;4965726;28;20040;-89
2021/04/22 01:11:03;;;;;;;70.03;43.20;;;;;;;18.05;42.37;72602.47;4966538;28;20035;-89
2021/04/22 01:13:30;;;;;;;68.50;42.42;;;;;;;17.26;43.08;72502.50;4963494;28;20038;-91
2021/04/22 01:15:57;;;;;;;68.03;44.15;;;;;;;18.08;43.16;72600.50;4949582;29;20028;-90
2021/04/22 01:18:25;;;;;;;66.53;42.25;;;;;;;18.46;42.42;72647.00;4948535;29;20051;-88
2021/04/22 01:20:53;;;;;;;69.00;41.60;;;;;;;18.84;40.99;72685.78;4971632;28;20027;-89
2021/04/22 01:23:20;;;;;;;68.63;41.17;;;;;;;18.79;42.11;72687.53;4974823;28;20032;-88
2021/04/22 01:25:50;;;;;;;72.93;41.30;;;;;;;19.27;40.34;72743.88;4959877;28;20072;-88
2021/04/22 01:28:17;;;;;;;;;;;;;;;19.45;39.45;72764.28;4959152;28;20028;-89
2021/04/22 01:30:47;;;;;;;70.18;44.20;;;;;;;19.30;38.69;72740.72;4971576;28;19922;-89
2021/04/22 01:33:16;;;;;;;73.38;42.15;;;;;;;19.61;38.76;72780.06;4958084;28;20059;-90
2021/04/22 01:35:44;;;;;;;97.47;48.80;;;;;;;19.49;37.64;72769.06;4957865;28;20075;-89
2021/04/22 01:38:13;;;;;;;89.07;48.53;;;;;;;20.00;37.40;72824.47;4957555;29;20103;-89
2021/04/22 01:40:41;;;;;;;80.88;46.60;;;;;;;20.48;37.34;72883.03;4953719;28;20063;-89
2021/04/22 01:43:09;;;;;;;79.85;48.03;;;;;;;20.77;37.58;72916.63;4955409;29;20039;-89
2021/04/22 01:45:36;;;;;;;78.50;46.55;;;;;;;20.30;37.64;72857.06;4952967;29;20059;-91
2021/04/22 01:48:04;;;;;;;86.28;49.63;;;;;;;20.23;37.40;72852.06;4945812;28;20090;-89
2021/04/22 01:50:33;;;;;;;97.72;50.70;;;;;;;20.97;36.08;72939.47;4958376;28;20028;-89
2021/04/22 01:53:00;;;;;;;87.15;49.35;;;;;;;21.21;37.04;72964.28;4942310;28;20035;-90
2021/04/22 01:55:36;;;;;;;85.85;50.45;;;;;;;20.89;36.42;72925.47;4971927;28;20544;-90
2021/04/22 01:58:06;;;;;;;79.82;50.33;;;;;;;20.80;36.76;72920.22;4971529;28;20058;-88
2021/04/22 02:00:40;;;;;;;;;;;;;;;21.53;36.33;73001.50;4954971;28;20028;-90
2021/04/22 02:03:08;;;;;;;95.68;51.00;;;;;;;21.54;36.36;73000.50;4955248;28;19915;-90
2021/04/22 02:05:36;;;;;;;99.18;56.00;;;;;;;21.28;35.66;72967.69;4953813;28;20039;-90
2021/04/22 02:08:04;;;;;;;96.55;56.55;;;;;;;20.79;36.10;72916.25;4952158;28;20075;-89
2021/04/22 02:10:31;;;;;;;89.20;56.47;;;;;;;20.68;36.80;72903.63;4951981;29;20027;-90
2021/04/22 02:12:59;;;;;;;94.85;54.38;;;;;;;21.51;36.10;73001.88;4969759;28;20039;-90
2021/04/22 02:15:28;;;;;;;98.75;58.13;;;;;;;21.73;35.28;73025.53;4963908;28;20035;-90
2021/04/22 02:17:57;;;;;;;91.03;53.73;;;;;;;21.53;35.21;72995.91;4946481;29;20032;-89
2021/04/22 02:20:24;;;;;;;93.50;55.83;;;;;;;21.48;35.02;72993.28;4943626;29;20107;-90
2021/04/22 02:22:51;;;;;;;94.80;59.10;;;;;;;22.05;34.21;73058.75;4951107;28;20024;-91
2021/04/22 02:25:21;;;;;;;105.50;61.53;;;;;;;21.61;34.32;73011.09;4952935;29;20087;-90
2021/04/22 02:27:48;;;;;;;97.60;57.05;;;;;;;21.96;34.98;73051.34;4979250;28;20051;-89
2021/04/22 02:30:24;;;;;;;97.53;57.88;;;;;;;21.32;35.07;72980.28;4963343;29;20134;-89
2021/04/22 02:32:52;;;;;;;98.93;58.45;;;;;;;22.40;34.90;73099.59;4952291;29;20827;-90
2021/04/22 02:35:26;;;;;;;102.68;61.60;;;;;;;22.18;34.54;73074.38;4952005;28;20055;-90
2021/04/22 02:37:53;;;;;;;102.90;60.55;;;;;;;22.17;35.74;73070.38;4952897;29;20062;-89
2021/04/22 02:40:23;;;;;;;109.45;63.97;;;;;;;21.88;34.69;73040.13;4951396;29;20047;-89
2021/04/22 02:42:51;;;;;;;95.95;62.33;;;;;;;22.39;34.45;73101.78;4939632;28;20062;-89
2021/04/22 02:45:21;;;;;;;101.22;61.10;;;;;;;22.49;34.77;73112.59;4937321;29;20022;-89
2021/04/22 02:47:49;;;;;;;90.65;59.50;;;;;;;22.69;34.59;73133.84;4951808;28;20032;-90
2021/04/22 02:50:20;;;;;;;103.90;62.72;;;;;;;22.69;34.95;73128.25;4934897;28;20019;-89
2021/04/22 02:52:47;;;;;;;110.60;64.15;;;;;;;22.87;35.44;73150.88;4951570;28;20047;-89
2021/04/22 02:55:15;;;;;;;102.10;62.03;;;;;;;22.79;35.14;73142.47;4938997;29;20020;-90
2021/04/22 02:57:42;;;;;;;112.25;66.40;;;;;;;22.94;34.67;73162.69;4955283;29;20525;-86
2021/04/22 03:00:15;;;;;;;114.82;65.07;;;;;;;22.28;34.16;73085.75;4953423;29;20062;-88
2021/04/22 03:02:42;;;;;;;104.60;63.38;;;;;;;23.16;34.16;73190.13;4953070;28;20511;-90
2021/04/22 03:05:09;;;;;;;115.82;65.32;;;;;;;23.15;34.25;73186.13;4950887;28;20477;-87
2021/04/22 03:07:36;;;;;;;115.60;65.55;;;;;;;22.60;33.71;73125.25;4944544;28;20035;-88
2021/04/22 03:10:05;;;;;;;107.82;64.95;;;;;;;23.15;32.67;73186.72;4950813;28;20027;-90
2021/04/22 03:12:32;;;;;;;105.07;66.18;;;;;;;23.15;31.96;73189.53;4950863;28;20214;-88
2021/04/22 03:14:59;;;;;;;110.82;61.20;;;;;;;23.72;32.89;73252.84;4934645;29;20122;-89
2021/04/22 03:17:26;;;;;;;106.90;62.70;;;;;;;23.07;32.22;73177.09;4953865;28;20835;-90
2021/04/22 03:19:53;;;;;;;110.22;57.25;;;;;;;23.85;31.55;73267.88;4944767;28;20458;-88
2021/04/22 03:22:20;;;;;;;113.90;64.07;;;;;;;23.72;32.18;73249.44;4943558;29;20035;-88
2021/04/22 03:24:46;;;;;;;99.57;61.25;;;;;;;22.75;31.91;73142.66;4960631;28;20039;-88
2021/04/22 03:27:13;;;;;;;108.15;61.72;;;;;;;22.73;31.76;73140.84;4952799;29;20027;-87
2021/04/22 03:29:40;;;;;;;91.35;55.80;;;;;;;22.76;32.08;73146.66;4963110;28;20036;-89
2021/04/22 03:32:07;;;;;;;105.53;59.00;;;;;;;23.21;31.83;73193.31;4958202;28;20110;-89
2021/04/22 03:34:34;;;;;;;90.00;56.60;;;;;;;23.47;31.77;73224.00;4958907;28;20032;-88
2021/04/22 03:37:01;;;;;;;99.93;59.33;;;;;;;23.24;31.19;73199.75;4962290;29;20079;-89
2021/04/22 03:39:28;;;;;;;110.78;63.83;;;;;;;23.47;30.86;73224.00;4962794;29;20028;-88
2021/04/22 03:41:54;;;;;;;98.00;59.25;;;;;;;23.65;31.27;73247.84;4962409;28;20055;-89
2021/04/22 03:44:21;;;;;;;119.97;61.15;;;;;;;23.60;31.07;73233.41;4958769;28;20561;-89
2021/04/22 03:46:48;;;;;;;105.10;60.83;;;;;;;23.30;30.66;73206.97;4939911;28;20032;-89
2021/04/22 03:49:15;;;;;;;100.68;57.67;;;;;;;23.95;29.35;73284.31;4956835;28;20023;-89
2021/04/22 03:51:42;;;;;;;87.70;53.75;;;;;;;23.18;29.44;73195.34;4959951;28;20039;-88
2021/04/22 03:54:09;;;;;;;94.80;57.08;;;;;;;23.99;29.43;73281.31;4954408;28;20035;-88
2021/04/22 03:56:36;;;;;;;96.03;54.97;;;;;;;23.17;28.75;73189.13;4940738;29;20031;-89
2021/04/22 03:59:03;;;;;;;101.47;56.50;;;;;;;24.23;28.64;73311.19;4939973;29;20099;-89
2021/04/22 04:01:30;;;;;;;86.43;54.70;;;;;;;23.97;29.02;73281.09;4938108;28;20031;-89
2021/04/22 04:03:56;;;;;;;93.22;52.72;;;;;;;24.01;29.00;73285.94;4940312;29;20036;-90
2021/04/22 04:06:23;;;;;;;90.55;55.55;;;;;;;23.90;29.06;73273.88;4938125;28;20036;-89
2021/04/22 04:08:50;;;;;;;93.57;56.35;;;;;;;24.04;29.60;73289.53;4937715;29;20453;-91
2021/04/22 04:11:17;;;;;;;87.47;55.03;;;;;;;23.72;29.43;73252.84;4937347;29;20091;-89
2021/04/22 04:13:44;;;;;;;95.85;54.58;;;;;;;24.03;30.41;73293.94;4937848;29;20497;-86
2021/04/22 04:16:10;;;;;;;95.93;57.92;;;;;;;23.75;29.42;73253.66;4937603;29;20024;-89
2021/04/22 04:18:37;;;;;;;88.05;55.17;;;;;;;23.43;29.54;73218.59;4954829;28;20023;-88
2021/04/22 04:21:04;;;;;;;94.53;57.17;;;;;;;23.78;29.55;73257.25;4954369;28;20027;-88
2021/04/22 04:23:31;;;;;;;91.55;54.53;;;;;;;24.09;29.74;73298.38;4937613;29;20032;-88
2021/04/22 04:25:58;;;;;;;97.25;54.45;;;;;;;24.03;29.11;73288.94;4953645;28;20417;-89
2021/04/22 04:28:25;;;;;;;90.18;52.35;;;;;;;23.54;29.05;73229.03;4953493;28;20023;-89
2021/04/22 04:30:52;;;;;;;88.53;52.92;;;;;;;24.31;28.37;73320.81;4937248;28;20031;-88
2021/04/22 04:33:19;;;;;;;87.70;54.50;;;;;;;24.24;28.09;73312.41;4937338;29;20047;-88
2021/04/22 04:35:45;;;;;;;87.78;55.55;;;;;;;24.18;28.49;73308.59;4936665;29;20038;-89
2021/04/22 04:38:12;;;;;;;87.90;55.80;;;;;;;24.86;27.37;73382.38;4936854;28;20036;-87
2021/04/22 04:40:39;;;;;;;101.72;56.65;;;;;;;24.74;27.66;73370.75;4952647;29;20524;-89
2021/04/22 04:43:06;;;;;;;93.55;53.95;;;;;;;24.80;26.48;73374.56;4959929;29;20120;-86
2021/04/22 04:45:33;;;;;;;87.97;55.70;;;;;;;24.93;27.33;73395.22;4946406;29;20482;-86
2021/04/22 04:48:00;;;;;;;95.75;57.20;;;;;;;24.80;27.23;73374.56;4948868;29;20529;-89
2021/04/22 04:50:27;;;;;;;105.70;64.25;;;;;;;23.72;28.32;73252.25;4953157;29;20038;-88
2021/04/22 04:52:53;;;;;;;105.63;66.15;;;;;;;23.29;29.91;73202.34;4953126;29;20038;-89
2021/04/22 04:55:20;;;;;;;117.35;68.10;;;;;;;23.74;31.75;73254.66;4952913;28;20482;-89
2021/04/22 04:57:47;;;;;;;115.82;68.15;;;;;;;22.98;31.31;73166.88;4954630;28;20039;-88
2021/04/22 05:00:17;;;;;;;111.40;66.55;;;;;;;22.62;31.26;73124.81;4952550;28;20034;-89
2021/04/22 05:02:45;;;;;;;111.10;64.72;;;;;;;23.19;31.19;73190.94;4953759;28;20126;-89
2021/04/22 05:05:12;;;;;;;112.50;65.93;;;;;;;23.20;31.09;73197.75;4952724;29;20114;-90
2021/04/22 05:07:39;;;;;;;111.15;66.57;;;;;;;23.02;31.43;73171.72;4936369;28;20024;-88
2021/04/22 05:10:08;;;;;;;116.10;62.58;;;;;;;23.84;31.28;73266.09;4952679;28;20118;-89
2021/04/22 05:12:35;;;;;;;100.53;65.55;;;;;;;23.62;31.28;73240.84;4952297;28;20118;-89
2021/04/22 05:15:03;;;;;;;106.35;61.67;;;;;;;23.99;31.30;73283.50;4945014;29;20063;-88
2021/04/22 05:17:30;;;;;;;116.15;69.38;;;;;;;23.65;32.41;73247.84;4946759;29;20020;-89
2021/04/22 05:19:57;;;;;;;112.53;66.13;;;;;;;23.12;33.07;73188.72;4952036;28;20035;-90
2021/04/22 05:22:24;;;;;;;108.78;65.45;;;;;;;23.51;33.25;73234.44;4936066;29;20427;-90
2021/04/22 05:24:51;;;;;;;111.28;66.28;;;;;;;23.60;31.90;73239.03;4936581;29;20036;-89
2021/04/22 05:27:18;;;;;;;117.85;70.15;;;;;;;23.35;32.83;73215.78;4954003;28;20118;-89
2021/04/22 05:29:44;;;;;;;114.68;66.25;;;;;;;23.14;32.76;73182.72;4937393;29;20057;-88
2021/04/22 05:32:11;;;;;;;117.68;68.43;;;;;;;22.90;32.04;73157.28;4953964;28;20036;-88
2021/04/22 05:34:38;;;;;;;108.75;65.95;;;;;;;23.64;33.18;73243.84;4969847;28;20054;-88
2021/04/22 05:37:05;;;;;;;127.47;67.63;;;;;;;22.73;31.85;73134.66;4971718;28;20035;-89
2021/04/22 05:39:32;;;;;;;104.35;63.05;;;;;;;22.87;32.13;73153.69;4955475;29;20028;-87
2021/04/22 05:41:59;;;;;;;107.25;67.25;;;;;;;23.68;31.63;73250.25;4931245;29;20058;-90
2021/04/22 05:44:26;;;;;;;115.80;65.05;;;;;;;23.69;31.97;73251.44;4955220;28;20085;-90
2021/04/22 05:46:53;;;;;;;112.90;65.57;;;;;;;22.67;32.82;73130.84;4956012;28;20028;-89
2021/04/22 05:49:20;;;;;;;107.18;67.80;;;;;;;22.80;34.00;73146.47;4951223;28;20482;-89
2021/04/22 05:51:47;;;;;;;127.32;68.30;;;;;;;22.79;34.47;73144.66;4935626;29;20035;-90
2021/04/22 05:54:14;;;;;;;112.00;66.90;;;;;;;21.07;34.73;72951.47;4951600;28;20038;-89
2021/04/22 05:56:41;;;;;;;116.43;68.15;;;;;;;22.76;34.62;73138.84;4951908;28;20038;-89
2021/04/22 05:59:08;;;;;;;116.43;69.25;;;;;;;22.58;34.81;73122.84;4951411;29;20032;-89
2021/04/22 06:01:35;;;;;;;110.75;65.10;;;;;;;22.67;34.90;73136.44;4951406;28;20028;-90
2021/04/22 06:04:03;;;;;;;118.97;67.72;;;;;;;22.63;34.69;73126.06;4935966;29;20054;-89
2021/04/22 06:06:29;;;;;;;121.85;64.70;;;;;;;21.90;34.26;73041.94;4936115;29;20027;-88
2021/04/22 06:08:56;;;;;;;111.32;65.00;;;;;;;22.55;33.46;73120.44;4952283;29;20034;-89
2021/04/22 06:11:23;;;;;;;110.47;66.60;;;;;;;22.72;32.84;73136.84;4939972;29;20051;-89
2021/04/22 06:13:50;;;;;;;105.88;64.82;;;;;;;22.93;32.03;73161.47;4938413;29;20040;-88
2021/04/22 06:16:17;;;;;;;103.57;62.47;;;;;;;22.34;32.49;73098.56;4936605;29;20067;-89
2021/04/22 06:18:44;;;;;;;105.60;62.47;;;;;;;23.13;31.60;73184.31;4939107;29;20036;-89
2021/04/22 06:21:11;;;;;;;116.18;64.50;;;;;;;22.77;30.69;73145.66;4941779;29;20043;-88
2021/04/22 06:23:38;;;;;;;104.47;61.05;;;;;;;23.09;29.78;73182.91;4962392;29;20026;-88
2021/04/22 06:26:05;;;;;;;102.97;60.65;;;;;;;22.87;30.21;73151.47;4951523;28;20036;-89
2021/04/22 06:28:32;;;;;;;103.60;59.65;;;;;;;24.12;29.84;73301.97;4959848;29;20047;-89
2021/04/22 06:30:59;;;;;;;89.53;58.80;;;;;;;24.27;30.20;73316.00;4955438;29;20362;-88
2021/04/22 06:33:26;;;;;;;100.72;60.75;;;;;;;23.70;29.95;73256.06;4958367;28;20501;-89
2021/04/22 06:35:53;;;;;;;102.60;62.20;;;;;;;23.78;30.22;73259.47;4959913;29;20033;-87
2021/04/22 06:38:20;;;;;;;103.28;64.72;;;;;;;23.17;30.03;73185.72;4957431;28;20028;-88
2021/04/22 06:40:47;;;;;;;97.53;63.15;;;;;;;23.32;30.31;73205.97;4953548;29;20066;-89
2021/04/22 06:43:15;;;;;;;101.60;62.92;;;;;;;23.46;30.08;73225.59;4945839;29;20110;-88
2021/04/22 06:45:45;;;;;;;104.82;62.40;;;;;;;23.55;30.51;73232.41;4949248;28;20032;-90
2021/04/22 06:48:12;;;;;;;;;;;;;;;23.53;29.91;73230.00;4956307;29;20038;-90
2021/04/22 06:50:40;;;;;;;97.75;59.85;;;;;;;22.91;30.50;73158.47;4953809;28;19914;-90
2021/04/22 06:53:07;;;;;;;113.00;63.22;;;;;;;23.08;30.40;73181.72;4952987;29;20035;-90
2021/04/22 06:55:34;;;;;;;101.53;63.92;;;;;;;23.40;30.39;73215.59;4954498;29;20579;-89
2021/04/22 06:58:03;;;;;;;101.90;62.28;;;;;;;22.98;31.09;73164.09;4956863;29;20035;-89
2021/04/22 07:00:39;;;;;;;106.53;63.60;;;;;;;22.86;31.24;73150.28;4972602;28;20038;-89
2021/04/22 07:03:07;;;;;;;104.38;62.72;;;;;;;22.89;30.92;73153.88;4975551;28;20038;-89
2021/04/22 07:05:36;;;;;;;103.85;62.40;;;;;;;22.26;31.97;73088.97;4964025;29;20031;-89
2021/04/22 07:08:04;;;;;;;98.28;60.70;;;;;;;21.97;31.24;73053.16;4940618;29;20039;-91
2021/04/22 07:10:31;;;;;;;117.32;66.32;;;;;;;21.57;32.50;73006.88;4954920;28;20123;-91
2021/04/22 07:12:58;;;;;;;107.93;64.68;;;;;;;22.03;32.48;73053.56;4974693;28;20127;-90
2021/04/22 07:15:26;;;;;;;110.75;62.17;;;;;;;22.18;31.63;73074.38;4942394;29;20371;-88
2021/04/22 07:17:55;;;;;;;103.93;60.80;;;;;;;22.06;32.26;73062.75;4971662;28;20034;-89
2021/04/22 07:20:23;;;;;;;100.63;60.97;;;;;;;21.81;33.11;73036.75;4938285;29;20500;-90
2021/04/22 07:22:51;;;;;;;101.57;62.10;;;;;;;21.69;32.94;73023.50;4975840;28;20047;-86
2021/04/22 07:25:19;;;;;;;107.38;61.80;;;;;;;20.53;32.70;72883.47;4955626;29;20031;-90
2021/04/22 07:27:46;;;;;;;108.22;63.63;;;;;;;19.92;32.83;72816.03;4957763;29;20635;-89
2021/04/22 07:30:13;;;;;;;111.47;61.65;;;;;;;20.27;33.21;72855.66;4952705;28;20090;-86
2021/04/22 07:32:40;;;;;;;101.20;58.15;;;;;;;21.77;33.15;73029.72;4973822;28;20031;-88
2021/04/22 07:35:10;;;;;;;100.22;57.55;;;;;;;21.53;33.38;73004.28;4976025;28;20497;-90
2021/04/22 07:37:38;;;;;;;96.35;54.50;;;;;;;20.98;32.17;72935.09;4942758;29;20098;-88
2021/04/22 07:40:10;;;;;;;85.53;52.22;;;;;;;21.41;32.96;72984.88;4945926;29;20032;-90
2021/04/22 07:42:37;;;;;;;84.28;49.10;;;;;;;20.56;33.61;72889.25;4947885;29;20028;-87
2021/04/22 07:45:05;;;;;;;74.68;45.33;;;;;;;20.78;34.93;72918.44;4977587;28;20114;-90
2021/04/22 07:47:32;;;;;;;80.43;45.40;;;;;;;21.18;33.50;72961.28;4943298;29;20054;-90
2021/04/22 07:49:58;;;;;;;76.78;45.28;;;;;;;19.91;34.96;72811.47;4975753;28;20035;-88
2021/04/22 07:52:26;;;;;;;68.60;43.33;;;;;;;21.35;32.81;72980.47;4943170;29;20038;-90
2021/04/22 07:54:53;;;;;;;66.70;37.97;;;;;;;20.78;33.04;72915.66;4942577;29;20074;-88
2021/04/22 07:57:20;;;;;;;63.17;35.15;;;;;;;20.06;31.98;72835.06;4942096;29;20118;-88
2021/04/22 07:59:47;;;;;;;72.57;38.65;;;;;;;19.91;32.06;72811.47;4962897;29;20032;-90
2021/04/22 08:02:14;;;;;;;75.80;39.85;;;;;;;19.55;32.63;72776.28;4949556;28;20035;-90
2021/04/22 08:04:44;;;;;;;73.90;39.22;;;;;;;21.05;33.21;72943.47;4947493;29;20035;-89
2021/04/22 08:07:14;;;;;;;73.82;37.78;;;;;;;19.47;32.76;72763.88;4962045;29;20048;-88
2021/04/22 08:09:44;;;;;;;;;;;;;;;20.90;32.75;72932.28;4940843;29;20026;-86
2021/04/22 08:12:24;;;;;;;67.88;38.67;;;;;;;20.68;34.07;72900.25;5105961;23;19923;-91
2021/04/22 08:15:01;;;;;;;68.43;37.67;;;;;;;19.08;34.29;72718.34;4967632;28;20032;-93
2021/04/22 08:20:30;;;;;;;68.30;36.05;;;;;;;19.25;34.28;72735.94;4976162;28;20069;-93
2021/04/22 08:23:01;;;;;;;56.50;35.17;;;;;;;19.40;34.22;72756.09;4952877;28;20039;-94
2021/04/22 08:28:21;;;;;;;58.42;35.55;;;;;;;18.94;33.24;72699.94;5359926;23;20054;-93
2021/04/22 08:31:38;;;;;;;61.88;35.95;;;;;;;20.94;33.47;72930.88;5184649;23;20053;-93
2021/04/22 08:34:25;;;;;;;62.50;33.75;;;;;;;18.81;33.10;72684.38;5002973;28;20500;-94
2021/04/22 08:37:34;;;;;;;71.22;37.90;;;;;;;19.72;33.26;72789.88;4989660;28;20049;-95
2021/04/22 08:40:15;;;;;;;69.93;38.63;;;;;;;20.94;33.15;72935.84;4981020;28;20038;-95
2021/04/22 08:42:51;;;;;;;66.40;38.60;;;;;;;19.01;33.30;72713.94;4986520;28;20281;-94
2021/04/22 08:45:42;;;;;;;64.13;33.70;;;;;;;21.03;33.07;72941.69;4977793;28;20026;-84
2021/04/22 08:48:49;;;;;;;56.63;32.53;;;;;;;18.87;31.43;72697.13;4983190;28;20054;-95
2021/04/22 08:51:28;;;;;;;46.00;24.70;;;;;;;20.88;29.84;72924.28;4978108;28;20019;-94
2021/04/22 08:54:49;;;;;;;42.20;23.55;;;;;;;19.45;29.12;72758.72;4987236;28;20031;-96
2021/04/22 08:57:36;;;;;;;36.63;21.27;;;;;;;20.93;28.39;72932.47;4988484;28;20061;-92
2021/04/22 09:00:20;;;;;;;46.15;23.05;;;;;;;20.65;28.24;72897.25;4988138;28;20034;-90
2021/04/22 09:02:55;;;;;;;33.75;18.73;;;;;;;19.79;27.52;72800.47;4981302;28;20084;-87
2021/04/22 09:05:29;;;;;;;44.10;23.23;;;;;;;19.49;28.34;72763.50;4993916;28;20029;-85
2021/04/22 09:08:06;;;;;;;40.60;22.17;;;;;;;18.16;28.76;72610.09;4993175;28;20112;-87
2021/04/22 09:11:07;;;;;;;32.25;23.05;;;;;;;20.76;29.42;72913.25;4981208;28;20034;-86
2021/04/22 09:13:58;;;;;;;36.40;21.48;;;;;;;19.05;28.32;72711.94;4996210;28;20050;-88
2021/04/22 09:16:31;;;;;;;36.90;20.40;;;;;;;20.25;28.12;72853.84;4978397;28;20042;-88
2021/04/22 09:19:18;;;;;;;32.67;17.38;;;;;;;18.32;26.98;72633.63;4979117;28;20447;-88
2021/04/22 09:22:02;;;;;;;43.55;20.65;;;;;;;19.80;28.30;72805.03;4991723;28;20030;-87
2021/04/22 09:24:30;;;;;;;40.90;21.30;;;;;;;19.70;28.55;72790.28;4971345;28;20026;-89
2021/04/22 09:27:10;;;;;;;34.80;19.35;;;;;;;19.80;28.44;72799.47;4993880;28;20053;-89
2021/04/22 09:29:51;;;;;;;28.77;14.98;;;;;;;20.71;26.60;72903.84;4976193;28;20026;-86
2021/04/22 09:35:21;;;;;;;23.20;14.43;;;;;;;20.69;26.16;72904.84;4995283;28;20030;-89
2021/04/22 09:37:57;;;;;;;26.13;14.07;;;;;;;20.68;26.22;72903.63;4970624;28;20027;-86
2021/04/22 09:40:33;;;;;;;23.35;14.77;;;;;;;19.41;25.99;72759.47;4993782;28;20483;-91
2021/04/22 09:43:16;;;;;;;18.92;13.32;;;;;;;19.16;25.49;72725.13;4975442;28;20559;-89
2021/04/22 09:45:53;;;;;;;27.40;15.52;;;;;;;20.05;26.09;72833.25;4993787;28;20038;-92
2021/04/22 09:51:33;;;;;;;29.88;13.07;;;;;;;18.31;25.20;72626.88;4954068;28;20196;-88
2021/04/22 09:54:12;;;;;;;29.33;15.02;;;;;;;19.09;25.74;72720.13;4979166;28;20030;-88
2021/04/22 09:56:56;;;;;;;24.60;12.40;;;;;;;20.38;25.17;72869.44;4979976;28;20361;-90
2021/04/22 09:59:31;;;;;;;25.10;12.90;;;;;;;19.84;24.99;72803.66;4978043;28;20563;-90
2021/04/22 10:02:20;;;;;;;26.40;11.00;;;;;;;18.25;25.24;72620.25;4997406;28;20030;-88
2021/04/22 10:04:58;;;;;;;16.87;11.30;;;;;;;18.48;24.86;72648.81;4983274;28;20037;-87
2021/04/22 10:07:46;;;;;;;18.83;9.63;;;;;;;18.46;24.96;72644.84;5002768;28;20081;-91
2021/04/22 10:10:44;;;;;;;29.98;13.27;;;;;;;18.49;26.69;72647.81;4986974;28;20030;-93
2021/04/22 10:13:25;;;;;;;26.23;15.20;;;;;;;18.48;26.82;72646.03;4992528;28;20068;-95
2021/04/22 10:19:17;;;;;;;27.80;17.10;;;;;;;17.92;28.65;72582.53;5000464;28;21663;-94
2021/04/22 10:21:47;;;;;;;31.27;18.65;;;;;;;19.55;28.42;72770.69;4991039;28;20491;-92
2021/04/22 10:24:28;;;;;;;33.75;16.95;;;;;;;20.42;27.22;72870.84;4979582;28;20081;-91
2021/04/22 10:27:03;;;;;;;35.50;21.88;;;;;;;20.41;29.62;72874.63;4978525;28;20038;-90
2021/04/22 10:29:31;;;;;;;29.88;18.83;;;;;;;19.30;28.83;72746.88;4976178;28;20038;-88
2021/04/22 10:32:08;;;;;;;38.22;20.50;;;;;;;19.34;28.73;72751.09;4979312;28;20144;-90
2021/04/22 10:34:43;;;;;;;32.20;19.45;;;;;;;19.98;27.55;72825.47;4980910;28;20030;-88
2021/04/22 10:37:11;;;;;;;31.83;18.52;;;;;;;19.04;29.51;72713.53;4980655;28;20030;-90
2021/04/22 10:39:42;;;;;;;27.80;17.88;;;;;;;18.46;27.79;72647.63;4981513;28;20030;-87
2021/04/22 10:42:10;;;;;;;29.52;17.48;;;;;;;20.32;28.76;72858.88;4993579;28;20038;-90
2021/04/22 10:44:49;;;;;;;31.70;19.48;;;;;;;19.78;27.67;72799.84;4976813;28;20030;-88
2021/04/22 10:47:20;;;;;;;23.00;16.60;;;;;;;18.94;27.10;72705.53;4979310;28;20052;-90
2021/04/22 10:49:48;;;;;;;32.03;17.35;;;;;;;18.54;28.05;72658.78;4985125;28;20393;-89
2021/04/22 10:52:17;;;;;;;28.55;17.33;;;;;;;19.64;28.26;72785.84;4976890;28;21373;-88
2021/04/22 10:54:50;;;;;;;29.48;17.67;;;;;;;19.86;28.99;72808.25;4976242;28;20034;-89
2021/04/22 10:57:34;;;;;;;;;;;;;;;;;;;;;
2021/04/22 11:00:29;;;;;;;22.25;12.38;;;;;;;19.91;26.20;72814.25;4994262;28;20030;-92
2021/04/22 11:03:01;;;;;;;24.95;14.00;;;;;;;18.77;29.85;72682.38;4971209;28;20045;-90
2021/04/22 11:05:34;;;;;;;24.63;14.13;;;;;;;19.78;30.80;72797.06;4975690;28;20113;-91
2021/04/22 11:08:16;;;;;;;26.92;18.02;;;;;;;17.46;30.94;72534.19;4978077;28;20125;-93
2021/04/22 11:10:55;;;;;;;28.38;18.30;;;;;;;19.48;33.24;72767.28;4976374;28;20359;-91
2021/04/22 11:13:34;;;;;;;36.20;21.92;;;;;;;18.23;34.27;72617.28;4977366;28;20058;-91
2021/04/22 11:16:04;;;;;;;37.13;23.50;;;;;;;16.82;34.61;72458.38;4978800;28;20122;-91
2021/04/22 11:18:50;;;;;;;44.20;23.95;;;;;;;18.91;34.62;72696.34;4987454;28;20069;-92
2021/04/22 11:21:27;;;;;;;43.83;24.38;;;;;;;17.16;35.75;72499.47;4988763;28;20030;-91
2021/04/22 11:23:56;;;;;;;51.72;26.02;;;;;;;18.42;36.99;72642.81;4978811;28;20038;-89
2021/04/22 11:26:31;;;;;;;51.42;26.60;;;;;;;17.66;37.36;72554.75;4983682;28;20034;-93
2021/04/22 11:29:14;;;;;;;50.25;28.50;;;;;;;17.37;38.79;72524.00;5001293;28;20054;-93
2021/04/22 11:31:50;;;;;;;56.83;32.35;;;;;;;16.50;40.05;72418.50;4994420;28;20062;-92
2021/04/22 11:34:18;;;;;;;62.90;35.47;;;;;;;16.85;40.26;72460.75;4990117;28;20033;-93
2021/04/22 11:36:51;;;;;;;67.07;34.08;;;;;;;17.05;41.57;72487.50;4986670;28;20077;-91
2021/04/22 11:39:29;;;;;;;64.15;31.40;;;;;;;17.36;41.24;72522.81;4987222;28;20034;-92
2021/04/22 11:41:59;;;;;;;59.90;33.00;;;;;;;17.35;41.72;72519.44;5006466;28;20019;-92
2021/04/22 11:44:54;;;;;;;56.92;33.42;;;;;;;17.16;42.12;72499.47;4991843;28;20031;-91
2021/04/22 11:47:28;;;;;;;60.90;35.30;;;;;;;16.58;42.80;72429.66;4990776;28;20041;-91
2021/04/22 11:50:08;;;;;;;57.35;30.30;;;;;;;16.13;42.25;72375.44;4989788;28;20030;-92